Terminal Aerodrome Forecast
Issued by NWS Anchorage, AK

Home | Current Version | Previous Version | Text Only | Print | Product List | Glossary On
Versions: 1 2 3 4 5 6 7 8 9 10 11 12 13 14 15 16 17 18 19 20 21 22 23 24 25 26 27 28 29 30 31 32 33 34 35 36 37 38 39 40 41 42 43 44 45 46 47 48
000
FTAK31 PANC 281910 AAB
TAFANC
TAF AMD
PANC 281910Z 2819/2924 18011KT P6SM SCT040 BKN070 OVC090
     FM282100 20007KT P6SM VCSH SCT050 OVC080
     FM290000 VRB04KT P6SM -RA SCT025 OVC040
     FM290400 VRB03KT 6SM -RA BR BKN025 OVC040
     FM291200 35005KT P6SM SCT030 BKN060=

USA.gov is the U.S. government's official web portal to all federal, state and local government web resources and services.